Latest Coastal Weather Observations for Yeppoon

IDQ60701

Issued at 8:43 am EST Sunday 21 April 2024 (issued every 10 minutes, with the page automatically refreshed every 10 minutes)

About coastal observations | Map of coastal stations | Coastal observations for QLD | Marine services | Other Formats
Station Details ID: 033294 Name: YEPPOON THE ESPLANADE Lat: -23.14 Lon: 150.75 Height: 5.5 m
Data from the previous 72 hours. | See also: Recent months at Yeppoon
Date/Time
EST
Wind Sea
Height
m
Swell Vis
km
Cloud Weather Temp
°C
Press
MSL
hPa
Rain since
9am
mm
Dir  Spd
kts
Gust
kts
Height
m
Period
s
Dir
21/08:30am SSW 11 16 - - - - - - - 19.8 1016.6 10.4
21/08:00am SSW 9 13 - - - - - - - 18.9 1016.5 10.4
21/07:30am SSW 9 13 - - - - - - - 17.6 1016.7 10.4
21/07:00am SW 5 9 - - - - - - - 17.0 1016.5 10.4
21/06:30am SW 5 8 - - - - - - - 16.5 1016.0 10.4
21/06:00am SW 7 11 - - - - - - - 16.4 1015.7 10.4
21/05:30am SSW 7 11 - - - - - - - 16.6 1015.1 10.4
21/05:00am SW 4 7 - - - - - - - 16.4 1015.0 10.4
21/04:30am S 7 12 - - - - - - - 16.2 1014.8 10.2
21/04:00am SSW 8 13 - - - - - - - 16.3 1015.2 10.2
21/03:30am S 11 17 - - - - - - - 16.2 1015.2 10.0
21/03:00am SSW 11 17 - - - - - - Rain 16.5 1015.2 6.4
21/02:30am SW 7 13 - - - - - - - 16.4 1015.7 5.8
21/02:00am SSW 9 15 - - - - - - - 16.7 1015.6 4.2
21/01:30am SSW 9 15 - - - - - - - 17.0 1015.7 4.2
21/01:00am SSW 10 17 - - - - - - - 17.0 1015.8 4.2
21/12:30am SSW 11 18 - - - - - - - 17.6 1016.1 3.8
21/12:00am S 14 21 - - - - - - Recent precip. 17.9 1016.0 3.8
 
Date/Time
EST
Wind Sea
Height
m
Swell Vis
km
Cloud Weather Temp
°C
Press
MSL
hPa
Rain since
9am
mm
Dir  Spd
kts
Gust
kts
Height
m
Period
s
Dir
20/11:30pm SSW 9 14 - - - - - - - 18.6 1016.3 3.6
20/11:00pm SSW 9 15 - - - - - - - 18.7 1016.1 3.6
20/10:30pm SSW 7 13 - - - - - - - 18.7 1016.1 3.4
20/10:00pm SW 6 9 - - - - - - - 18.7 1016.3 3.4
20/09:30pm SW 4 6 - - - - - - - 18.6 1016.2 3.4
20/09:00pm WSW 7 9 - - - - - - - 18.6 1016.1 3.4
20/08:30pm WSW 7 9 - - - - - - - 18.6 1016.0 3.4
20/08:00pm SW 6 9 - - - - - - - 18.7 1015.9 3.4
20/07:30pm SW 6 9 - - - - - - - 18.8 1015.8 3.4
20/07:00pm WSW 5 7 - - - - - - - 18.9 1015.3 3.4
20/06:30pm SW 6 9 - - - - - - - 19.6 1015.1 3.4
20/06:00pm SW 7 10 - - - - - - Recent precip. 20.1 1014.6 2.4
20/05:30pm SW 5 7 - - - - - - - 20.4 1014.5 2.0
20/05:00pm SSW 8 14 - - - - - - - 20.2 1014.1 1.0
20/04:30pm SSW 10 14 - - - - - - - 20.1 1013.7 1.0
20/04:00pm SSW 9 13 - - - - - - - 20.9 1013.6 1.0
20/03:30pm S 6 9 - - - - - - - 21.3 1013.1 1.0
20/03:00pm S 5 7 - - - - - - Recent precip. 21.7 1012.9 1.0
20/02:30pm S 8 14 - - - - - - - 22.1 1012.7 1.0
20/02:00pm S 10 15 - - - - - - - 22.8 1012.9 0.8
20/01:30pm S 9 13 - - - - - - - 23.4 1012.9 0.8
20/01:00pm SSE 10 15 - - - - - - - 23.1 1013.2 0.8
20/12:30pm S 7 13 - - - - - - - 23.2 1013.5 0.8
20/12:00pm S 7 10 - - - - - - - 23.5 1014.0 0.8
20/11:30am S 7 10 - - - - - - - 22.8 1014.5 0.8
20/11:00am SSW 7 11 - - - - - - - 22.7 1014.9 0.8
20/10:30am SSE 7 10 - - - - - - - 23.1 1015.3 0.6
20/10:00am S 6 8 - - - - - - - 23.0 1015.4 0.2
20/09:30am SSE 9 12 - - - - - - - 23.0 1015.3 0.0
20/09:00am S 8 11 - - - - - - - 22.8 1015.3 2.0
20/08:30am SSE 7 11 - - - - - - - 23.1 1015.1 2.0
20/08:00am SSE 9 15 - - - - - - - 22.8 1014.7 2.0
20/07:30am SSE 10 13 - - - - - - - 22.8 1014.7 1.8
20/07:00am SSE 6 9 - - - - - - - 23.3 1014.2 1.8
20/06:30am SSW 3 5 - - - - - - - 23.1 1013.8 1.2
20/06:00am SW 4 6 - - - - - - - 23.0 1013.5 1.0
20/05:30am W 3 5 - - - - - - - 22.8 1013.2 1.0
20/05:00am W 5 6 - - - - - - - 22.8 1012.9 1.0
20/04:30am W 5 8 - - - - - - - 23.0 1012.8 1.0
20/04:00am SW 2 4 - - - - - - - 23.4 1012.6 1.0
20/03:30am NE 7 11 - - - - - - - 24.0 1012.7 1.0
20/03:00am S 5 7 - - - - - - - 24.0 1012.8 0.0
20/02:30am E 7 9 - - - - - - - 25.2 1012.8 0.0
20/02:00am SSW 3 7 - - - - - - - 23.9 1012.9 0.0
20/01:30am SSW 4 5 - - - - - - - 23.9 1013.3 0.0
20/01:00am SE 4 8 - - - - - - - 24.3 1013.6 0.0
20/12:30am ESE 5 7 - - - - - - - 25.1 1013.9 0.0
20/12:00am ESE 6 8 - - - - - - - 25.0 1014.3 0.0
 
Date/Time
EST
Wind Sea
Height
m
Swell Vis
km
Cloud Weather Temp
°C
Press
MSL
hPa
Rain since
9am
mm
Dir  Spd
kts
Gust
kts
Height
m
Period
s
Dir
19/11:30pm SSE 3 6 - - - - - - - 23.9 1014.4 0.0
19/11:00pm SSW 4 6 - - - - - - - 23.3 1014.8 0.0
19/10:30pm ESE 5 7 - - - - - - - 24.8 1014.6 0.0
19/10:00pm SSW 3 4 - - - - - - - 23.2 1014.7 0.0
19/09:30pm CALM 0 3 - - - - - - - 23.9 1014.6 0.0
19/09:00pm E 7 8 - - - - - - - 25.4 1014.8 0.0
19/08:30pm E 8 9 - - - - - - - 25.6 1014.7 0.0
19/08:00pm ENE 8 9 - - - - - - - 25.6 1014.4 0.0
19/07:30pm ENE 7 8 - - - - - - - 25.5 1014.2 0.0
19/07:00pm ENE 7 9 - - - - - - - 25.5 1013.8 0.0
19/06:30pm ENE 8 9 - - - - - - - 25.6 1013.4 0.0
19/06:00pm ENE 7 9 - - - - - - - 25.6 1013.1 0.0
19/05:30pm ENE 7 8 - - - - - - - 25.6 1012.8 0.0
19/05:00pm ENE 8 9 - - - - - - - 25.9 1012.6 0.0
19/04:30pm ENE 7 8 - - - - - - - 26.4 1012.3 0.0
19/04:00pm ENE 8 8 - - - - - - - 26.4 1012.3 0.0
19/03:30pm ENE 8 9 - - - - - - - 26.6 1012.1 0.0
19/03:00pm ENE 7 8 - - - - - - - 26.6 1012.0 0.0
19/02:30pm ENE 7 8 - - - - - - - 27.0 1012.2 0.0
19/02:00pm ENE 7 8 - - - - - - - 26.8 1012.5 0.0
19/01:30pm ENE 7 9 - - - - - - - 27.2 1012.7 0.0
19/01:00pm E 8 9 - - - - - - - 26.9 1013.2 0.0
19/12:30pm E 9 9 - - - - - - - 26.7 1013.4 0.0
19/12:00pm E 8 10 - - - - - - - 26.7 1013.7 0.0
19/11:30am E 8 9 - - - - - - - 26.3 1014.1 0.0
19/11:00am E 9 10 - - - - - - - 26.2 1014.3 0.0
19/10:30am E 8 9 - - - - - - - 26.2 1014.6 0.0
19/10:00am E 7 8 - - - - - - - 26.0 1014.9 0.0
19/09:30am E 5 6 - - - - - - - 25.9 1014.9 0.0
19/09:00am E 4 5 - - - - - - - 24.7 1014.7 0.6
19/08:30am WSW 3 5 - - - - - - - 23.6 1014.6 0.6
19/08:00am W 4 5 - - - - - - - 22.6 1014.4 0.6
19/07:30am W 5 6 - - - - - - - 21.4 1014.3 0.6
19/07:00am W 4 6 - - - - - - - 20.7 1014.0 0.6
19/06:30am WNW 5 7 - - - - - - - 20.4 1013.8 0.6
19/06:00am W 4 6 - - - - - - - 20.5 1013.4 0.6
19/05:30am W 5 6 - - - - - - - 20.6 1013.2 0.6
19/05:00am WSW 3 4 - - - - - - - 21.0 1012.8 0.6
19/04:30am WNW 5 6 - - - - - - - 21.2 1012.6 0.6
19/04:00am WNW 5 7 - - - - - - - 21.1 1012.6 0.6
19/03:30am WNW 6 6 - - - - - - - 20.9 1012.7 0.6
19/03:00am W 5 6 - - - - - - Recent precip. 21.5 1012.6 0.6
19/02:30am WNW 5 6 - - - - - - - 21.0 1012.5 0.6
19/02:00am WNW 6 6 - - - - - - - 21.2 1012.8 0.4
19/01:30am WNW 5 6 - - - - - - - 21.5 1013.0 0.4
19/01:00am WNW 5 6 - - - - - - - 21.4 1013.2 0.4
19/12:30am WNW 5 6 - - - - - - - 21.7 1013.5 0.4
19/12:00am W 5 6 - - - - - - - 21.8 1014.1 0.4
 
Date/Time
EST
Wind Sea
Height
m
Swell Vis
km
Cloud Weather Temp
°C
Press
MSL
hPa
Rain since
9am
mm
Dir  Spd
kts
Gust
kts
Height
m
Period
s
Dir
18/11:30pm WNW 4 6 - - - - - - - 21.6 1014.4 0.4
18/11:00pm WNW 4 5 - - - - - - - 21.9 1014.6 0.4
18/10:30pm WNW 5 6 - - - - - - - 22.1 1014.8 0.4
18/10:00pm NW 3 4 - - - - - - - 22.3 1014.9 0.4
18/09:30pm E 1 5 - - - - - - - 22.6 1014.9 0.4
18/09:00pm CALM 0 0 - - - - - - - 23.0 1015.1 0.4
18/08:30pm CALM 0 0 - - - - - - - 23.5 1015.0 0.4
18/08:00pm E 4 5 - - - - - - - 24.1 1014.9 0.4
18/07:30pm ENE 7 8 - - - - - - - 25.0 1014.8 0.4
18/07:00pm ENE 7 8 - - - - - - - 25.0 1014.7 0.4
18/06:30pm E 7 8 - - - - - - - 24.9 1014.4 0.4
18/06:00pm E 6 8 - - - - - - - 24.9 1014.2 0.4
18/05:30pm ESE 5 7 - - - - - - - 25.0 1014.1 0.4
18/05:00pm ESE 6 9 - - - - - - - 25.4 1013.9 0.4
18/04:30pm ESE 6 8 - - - - - - - 25.4 1013.7 0.4
18/04:00pm ESE 6 8 - - - - - - - 25.8 1013.8 0.4
18/03:30pm ESE 7 9 - - - - - - - 25.8 1014.0 0.4
18/03:00pm ESE 7 9 - - - - - - - 25.5 1014.1 0.4
18/02:30pm SE 7 9 - - - - - - - 25.6 1014.4 0.4
18/02:00pm ESE 7 9 - - - - - - - 25.5 1014.6 0.4
18/01:30pm ESE 9 12 - - - - - - - 25.7 1014.7 0.4
18/01:00pm SE 7 10 - - - - - - - 25.4 1015.2 0.4
18/12:30pm S 5 8 - - - - - - - 24.4 1015.5 0.4
18/12:00pm S 8 11 - - - - - - - 25.0 1015.8 0.0
18/11:30am SSE 9 11 - - - - - - - 26.0 1016.0 0.0
18/11:00am SE 7 11 - - - - - - - 26.1 1016.4 0.0
18/10:30am SSE 6 9 - - - - - - - 25.2 1016.6 0.0
18/10:00am SE 8 11 - - - - - - - 24.7 1016.8 0.0
18/09:30am SE 7 11 - - - - - - - 24.6 1016.9 0.0
18/09:00am S 8 11 - - - - - - - 24.2 1017.0 2.0

Other formats

Comma delimited format used in spreadsheet applications
http://www.bom.gov.au/fwo/IDQ60701/IDQ60701.94373.axf

JavaScript Object Notation format (JSON) in row-major order
http://www.bom.gov.au/fwo/IDQ60701/IDQ60701.94373.json

Data quality

Most of these data are generated automatically and are frequently updated. Quality checks on data are not normally performed. It is possible for incorrect values to appear. Refer to information at About Latest Weather Observations and please check the disclaimer before using these data.